sensor_id;sensor_type;location;lat;lon;timestamp;temperature;humidity
5429;DHT22;2737;52.386;9.980;2023-08-07T00:01:20;15.40;99.90
5429;DHT22;2737;52.386;9.980;2023-08-07T00:03:47;15.40;99.90
5429;DHT22;2737;52.386;9.980;2023-08-07T00:06:14;15.40;99.90
5429;DHT22;2737;52.386;9.980;2023-08-07T00:08:42;15.40;99.90
5429;DHT22;2737;52.386;9.980;2023-08-07T00:11:10;15.40;99.90
5429;DHT22;2737;52.386;9.980;2023-08-07T00:13:37;15.40;99.90
5429;DHT22;2737;52.386;9.980;2023-08-07T00:16:04;15.40;99.90
5429;DHT22;2737;52.386;9.980;2023-08-07T00:18:31;15.40;99.90
5429;DHT22;2737;52.386;9.980;2023-08-07T00:20:58;15.30;99.90
5429;DHT22;2737;52.386;9.980;2023-08-07T00:23:25;15.30;99.90
5429;DHT22;2737;52.386;9.980;2023-08-07T00:25:53;15.20;99.90
5429;DHT22;2737;52.386;9.980;2023-08-07T00:28:20;15.20;99.90
5429;DHT22;2737;52.386;9.980;2023-08-07T00:30:48;15.10;99.90
5429;DHT22;2737;52.386;9.980;2023-08-07T00:33:15;15.10;99.90
5429;DHT22;2737;52.386;9.980;2023-08-07T00:35:41;15.10;99.90
5429;DHT22;2737;52.386;9.980;2023-08-07T00:38:08;15.00;99.90
5429;DHT22;2737;52.386;9.980;2023-08-07T00:40:39;15.00;99.90
5429;DHT22;2737;52.386;9.980;2023-08-07T00:43:07;14.90;99.90
5429;DHT22;2737;52.386;9.980;2023-08-07T00:45:40;14.90;99.90
5429;DHT22;2737;52.386;9.980;2023-08-07T00:48:08;14.80;99.90
5429;DHT22;2737;52.386;9.980;2023-08-07T00:50:36;14.80;99.90
5429;DHT22;2737;52.386;9.980;2023-08-07T00:53:04;14.80;99.90
5429;DHT22;2737;52.386;9.980;2023-08-07T00:55:31;14.80;99.90
5429;DHT22;2737;52.386;9.980;2023-08-07T00:57:58;14.80;99.90
5429;DHT22;2737;52.386;9.980;2023-08-07T01:00:28;14.80;99.90
5429;DHT22;2737;52.386;9.980;2023-08-07T01:02:56;14.70;99.90
5429;DHT22;2737;52.386;9.980;2023-08-07T01:05:24;14.70;99.90
5429;DHT22;2737;52.386;9.980;2023-08-07T01:07:53;14.70;99.90
5429;DHT22;2737;52.386;9.980;2023-08-07T01:10:25;14.70;99.90
5429;DHT22;2737;52.386;9.980;2023-08-07T01:13:02;14.70;99.90
5429;DHT22;2737;52.386;9.980;2023-08-07T01:15:32;14.70;99.90
5429;DHT22;2737;52.386;9.980;2023-08-07T01:18:00;14.80;99.90
5429;DHT22;2737;52.386;9.980;2023-08-07T01:20:30;14.70;99.90
5429;DHT22;2737;52.386;9.980;2023-08-07T01:22:58;14.70;99.90
5429;DHT22;2737;52.386;9.980;2023-08-07T01:25:25;14.70;99.90
5429;DHT22;2737;52.386;9.980;2023-08-07T01:28:02;14.70;99.90
5429;DHT22;2737;52.386;9.980;2023-08-07T01:30:33;14.70;99.90
5429;DHT22;2737;52.386;9.980;2023-08-07T01:33:09;14.70;99.90
5429;DHT22;2737;52.386;9.980;2023-08-07T01:35:41;14.70;99.90
5429;DHT22;2737;52.386;9.980;2023-08-07T01:38:11;14.70;99.90
5429;DHT22;2737;52.386;9.980;2023-08-07T01:40:39;14.70;99.90
5429;DHT22;2737;52.386;9.980;2023-08-07T01:43:07;14.70;99.90
5429;DHT22;2737;52.386;9.980;2023-08-07T01:45:35;14.80;99.90
5429;DHT22;2737;52.386;9.980;2023-08-07T01:48:02;14.80;99.90
5429;DHT22;2737;52.386;9.980;2023-08-07T01:50:30;14.70;99.90
5429;DHT22;2737;52.386;9.980;2023-08-07T01:52:57;14.80;99.90
5429;DHT22;2737;52.386;9.980;2023-08-07T01:55:25;14.80;99.90
5429;DHT22;2737;52.386;9.980;2023-08-07T01:57:52;14.80;99.90
5429;DHT22;2737;52.386;9.980;2023-08-07T02:00:20;14.70;99.90
5429;DHT22;2737;52.386;9.980;2023-08-07T02:02:47;14.70;99.90
5429;DHT22;2737;52.386;9.980;2023-08-07T02:05:15;14.70;99.90
5429;DHT22;2737;52.386;9.980;2023-08-07T02:07:42;14.70;99.90
5429;DHT22;2737;52.386;9.980;2023-08-07T02:10:09;14.70;99.90
5429;DHT22;2737;52.386;9.980;2023-08-07T02:12:38;14.70;99.90
5429;DHT22;2737;52.386;9.980;2023-08-07T02:15:06;14.70;99.90
5429;DHT22;2737;52.386;9.980;2023-08-07T02:17:33;14.60;99.90
5429;DHT22;2737;52.386;9.980;2023-08-07T02:20:01;14.60;99.90
5429;DHT22;2737;52.386;9.980;2023-08-07T02:22:28;14.60;99.90
5429;DHT22;2737;52.386;9.980;2023-08-07T02:24:55;14.60;99.90
5429;DHT22;2737;52.386;9.980;2023-08-07T02:27:22;14.60;99.90
5429;DHT22;2737;52.386;9.980;2023-08-07T02:29:50;14.60;99.90
5429;DHT22;2737;52.386;9.980;2023-08-07T02:32:17;14.50;99.90
5429;DHT22;2737;52.386;9.980;2023-08-07T02:34:45;14.50;99.90
5429;DHT22;2737;52.386;9.980;2023-08-07T02:37:12;14.50;99.90
5429;DHT22;2737;52.386;9.980;2023-08-07T02:39:39;14.50;99.90
5429;DHT22;2737;52.386;9.980;2023-08-07T02:42:06;14.50;99.90
5429;DHT22;2737;52.386;9.980;2023-08-07T02:44:33;14.50;99.90
5429;DHT22;2737;52.386;9.980;2023-08-07T02:47:02;14.50;99.90
5429;DHT22;2737;52.386;9.980;2023-08-07T02:49:29;14.50;99.90
5429;DHT22;2737;52.386;9.980;2023-08-07T02:51:56;14.50;99.90
5429;DHT22;2737;52.386;9.980;2023-08-07T02:54:23;14.50;99.90
5429;DHT22;2737;52.386;9.980;2023-08-07T02:56:50;14.50;99.90
5429;DHT22;2737;52.386;9.980;2023-08-07T02:59:17;14.50;99.90
5429;DHT22;2737;52.386;9.980;2023-08-07T03:01:44;14.50;99.90
5429;DHT22;2737;52.386;9.980;2023-08-07T03:04:13;14.40;99.90
5429;DHT22;2737;52.386;9.980;2023-08-07T03:06:40;14.40;99.90
5429;DHT22;2737;52.386;9.980;2023-08-07T03:09:07;14.40;99.90
5429;DHT22;2737;52.386;9.980;2023-08-07T03:11:34;14.30;99.90
5429;DHT22;2737;52.386;9.980;2023-08-07T03:14:01;14.40;99.90
5429;DHT22;2737;52.386;9.980;2023-08-07T03:16:28;14.40;99.90
5429;DHT22;2737;52.386;9.980;2023-08-07T03:18:55;14.40;99.90
5429;DHT22;2737;52.386;9.980;2023-08-07T03:21:24;14.40;99.90
5429;DHT22;2737;52.386;9.980;2023-08-07T03:23:51;14.40;99.90
5429;DHT22;2737;52.386;9.980;2023-08-07T03:26:18;14.40;99.90
5429;DHT22;2737;52.386;9.980;2023-08-07T03:28:45;14.40;99.90
5429;DHT22;2737;52.386;9.980;2023-08-07T03:31:14;14.40;99.90
5429;DHT22;2737;52.386;9.980;2023-08-07T03:33:41;14.50;99.90
5429;DHT22;2737;52.386;9.980;2023-08-07T03:36:08;14.50;99.90
5429;DHT22;2737;52.386;9.980;2023-08-07T03:38:37;14.50;99.90
5429;DHT22;2737;52.386;9.980;2023-08-07T03:41:04;14.50;99.90
5429;DHT22;2737;52.386;9.980;2023-08-07T03:43:31;14.50;99.90
5429;DHT22;2737;52.386;9.980;2023-08-07T03:45:58;14.50;99.90
5429;DHT22;2737;52.386;9.980;2023-08-07T03:48:25;14.50;99.90
5429;DHT22;2737;52.386;9.980;2023-08-07T03:50:52;14.50;99.90
5429;DHT22;2737;52.386;9.980;2023-08-07T03:53:22;14.50;99.90
5429;DHT22;2737;52.386;9.980;2023-08-07T03:55:51;14.50;99.90
5429;DHT22;2737;52.386;9.980;2023-08-07T03:58:18;14.60;99.90
5429;DHT22;2737;52.386;9.980;2023-08-07T04:00:45;14.50;99.90
5429;DHT22;2737;52.386;9.980;2023-08-07T04:03:12;14.50;99.90
5429;DHT22;2737;52.386;9.980;2023-08-07T04:05:39;14.60;99.90
5429;DHT22;2737;52.386;9.980;2023-08-07T04:08:06;14.60;99.90
5429;DHT22;2737;52.386;9.980;2023-08-07T04:10:33;14.60;99.90
5429;DHT22;2737;52.386;9.980;2023-08-07T04:13:01;14.60;99.90
5429;DHT22;2737;52.386;9.980;2023-08-07T04:15:28;14.60;99.90
5429;DHT22;2737;52.386;9.980;2023-08-07T04:17:56;14.60;99.90
5429;DHT22;2737;52.386;9.980;2023-08-07T04:20:23;14.60;99.90
5429;DHT22;2737;52.386;9.980;2023-08-07T04:22:50;14.60;99.90
5429;DHT22;2737;52.386;9.980;2023-08-07T04:25:17;14.60;99.90
5429;DHT22;2737;52.386;9.980;2023-08-07T04:27:44;14.60;99.90
5429;DHT22;2737;52.386;9.980;2023-08-07T04:30:13;14.60;99.90
5429;DHT22;2737;52.386;9.980;2023-08-07T04:32:40;14.60;99.90
5429;DHT22;2737;52.386;9.980;2023-08-07T04:35:07;14.60;99.90
5429;DHT22;2737;52.386;9.980;2023-08-07T04:37:35;14.70;99.90
5429;DHT22;2737;52.386;9.980;2023-08-07T04:40:02;14.60;99.90
5429;DHT22;2737;52.386;9.980;2023-08-07T04:42:30;14.70;99.90
5429;DHT22;2737;52.386;9.980;2023-08-07T04:44:58;14.70;99.90
5429;DHT22;2737;52.386;9.980;2023-08-07T04:47:28;14.70;99.90
5429;DHT22;2737;52.386;9.980;2023-08-07T04:49:55;14.70;99.90
5429;DHT22;2737;52.386;9.980;2023-08-07T04:52:22;14.70;99.90
5429;DHT22;2737;52.386;9.980;2023-08-07T04:54:49;14.70;99.90
5429;DHT22;2737;52.386;9.980;2023-08-07T04:57:16;14.60;99.90
5429;DHT22;2737;52.386;9.980;2023-08-07T04:59:43;14.70;99.90
5429;DHT22;2737;52.386;9.980;2023-08-07T05:02:10;14.70;99.90
5429;DHT22;2737;52.386;9.980;2023-08-07T05:04:38;14.70;99.90
5429;DHT22;2737;52.386;9.980;2023-08-07T05:07:05;14.70;99.90
5429;DHT22;2737;52.386;9.980;2023-08-07T05:09:33;14.70;99.90
5429;DHT22;2737;52.386;9.980;2023-08-07T05:12:00;14.70;99.90
5429;DHT22;2737;52.386;9.980;2023-08-07T05:14:28;14.70;99.90
5429;DHT22;2737;52.386;9.980;2023-08-07T05:16:56;14.70;99.90
5429;DHT22;2737;52.386;9.980;2023-08-07T05:19:23;14.80;99.90
5429;DHT22;2737;52.386;9.980;2023-08-07T05:21:51;14.80;99.90
5429;DHT22;2737;52.386;9.980;2023-08-07T05:24:18;14.80;99.90
5429;DHT22;2737;52.386;9.980;2023-08-07T05:26:45;14.80;99.90
5429;DHT22;2737;52.386;9.980;2023-08-07T05:29:12;14.80;99.90
5429;DHT22;2737;52.386;9.980;2023-08-07T05:31:39;14.80;99.90
5429;DHT22;2737;52.386;9.980;2023-08-07T05:34:06;14.90;99.90
5429;DHT22;2737;52.386;9.980;2023-08-07T05:36:33;14.90;99.90
5429;DHT22;2737;52.386;9.980;2023-08-07T05:39:02;14.90;99.90
5429;DHT22;2737;52.386;9.980;2023-08-07T05:41:29;15.00;99.90
5429;DHT22;2737;52.386;9.980;2023-08-07T05:43:56;15.00;99.90
5429;DHT22;2737;52.386;9.980;2023-08-07T05:46:23;15.10;99.90
5429;DHT22;2737;52.386;9.980;2023-08-07T05:48:50;15.10;99.90
5429;DHT22;2737;52.386;9.980;2023-08-07T05:51:17;15.10;99.90
5429;DHT22;2737;52.386;9.980;2023-08-07T05:53:45;15.10;99.90
5429;DHT22;2737;52.386;9.980;2023-08-07T05:56:13;15.20;99.90
5429;DHT22;2737;52.386;9.980;2023-08-07T05:58:40;15.20;99.90
5429;DHT22;2737;52.386;9.980;2023-08-07T06:01:07;15.20;99.90
5429;DHT22;2737;52.386;9.980;2023-08-07T06:03:34;15.20;99.90
5429;DHT22;2737;52.386;9.980;2023-08-07T06:06:01;15.20;99.90
5429;DHT22;2737;52.386;9.980;2023-08-07T06:08:29;15.20;99.90
5429;DHT22;2737;52.386;9.980;2023-08-07T06:10:56;15.10;99.90
5429;DHT22;2737;52.386;9.980;2023-08-07T06:13:24;15.10;99.90
5429;DHT22;2737;52.386;9.980;2023-08-07T06:15:51;15.10;99.90
5429;DHT22;2737;52.386;9.980;2023-08-07T06:18:18;15.00;99.90
5429;DHT22;2737;52.386;9.980;2023-08-07T06:20:45;15.00;99.90
5429;DHT22;2737;52.386;9.980;2023-08-07T06:23:12;14.90;99.90
5429;DHT22;2737;52.386;9.980;2023-08-07T06:25:39;14.90;99.90
5429;DHT22;2737;52.386;9.980;2023-08-07T06:28:06;15.00;99.90
5429;DHT22;2737;52.386;9.980;2023-08-07T06:30:35;15.00;99.90
5429;DHT22;2737;52.386;9.980;2023-08-07T06:33:02;15.00;99.90
5429;DHT22;2737;52.386;9.980;2023-08-07T06:35:29;15.10;99.90
5429;DHT22;2737;52.386;9.980;2023-08-07T06:37:56;15.10;99.90
5429;DHT22;2737;52.386;9.980;2023-08-07T06:40:23;15.10;99.90
5429;DHT22;2737;52.386;9.980;2023-08-07T06:42:50;15.10;99.90
5429;DHT22;2737;52.386;9.980;2023-08-07T06:45:17;15.20;99.90
5429;DHT22;2737;52.386;9.980;2023-08-07T06:47:45;15.20;99.90
5429;DHT22;2737;52.386;9.980;2023-08-07T06:50:13;15.20;99.90
5429;DHT22;2737;52.386;9.980;2023-08-07T06:52:40;15.20;99.90
5429;DHT22;2737;52.386;9.980;2023-08-07T06:55:07;15.30;99.90
5429;DHT22;2737;52.386;9.980;2023-08-07T06:57:34;15.30;99.90
5429;DHT22;2737;52.386;9.980;2023-08-07T07:00:02;15.40;99.90
5429;DHT22;2737;52.386;9.980;2023-08-07T07:02:29;15.50;99.90
5429;DHT22;2737;52.386;9.980;2023-08-07T07:04:58;15.50;99.90
5429;DHT22;2737;52.386;9.980;2023-08-07T07:07:25;15.60;99.90
5429;DHT22;2737;52.386;9.980;2023-08-07T07:09:52;15.70;99.90
5429;DHT22;2737;52.386;9.980;2023-08-07T07:12:19;15.70;99.90
5429;DHT22;2737;52.386;9.980;2023-08-07T07:14:46;15.70;99.90
5429;DHT22;2737;52.386;9.980;2023-08-07T07:17:13;15.70;99.90
5429;DHT22;2737;52.386;9.980;2023-08-07T07:19:40;15.70;99.90
5429;DHT22;2737;52.386;9.980;2023-08-07T07:22:09;15.80;99.90
5429;DHT22;2737;52.386;9.980;2023-08-07T07:24:36;15.90;99.90
5429;DHT22;2737;52.386;9.980;2023-08-07T07:27:03;16.00;99.90
5429;DHT22;2737;52.386;9.980;2023-08-07T07:29:30;16.00;99.90
5429;DHT22;2737;52.386;9.980;2023-08-07T07:31:57;16.20;99.90
5429;DHT22;2737;52.386;9.980;2023-08-07T07:34:24;16.30;99.90
5429;DHT22;2737;52.386;9.980;2023-08-07T07:36:51;16.30;99.90
5429;DHT22;2737;52.386;9.980;2023-08-07T07:39:21;16.40;99.90
5429;DHT22;2737;52.386;9.980;2023-08-07T07:41:48;16.30;99.90
5429;DHT22;2737;52.386;9.980;2023-08-07T07:44:15;16.10;99.90
5429;DHT22;2737;52.386;9.980;2023-08-07T07:46:42;16.20;99.90
5429;DHT22;2737;52.386;9.980;2023-08-07T07:49:09;16.30;99.90
5429;DHT22;2737;52.386;9.980;2023-08-07T07:51:36;16.50;99.90
5429;DHT22;2737;52.386;9.980;2023-08-07T07:54:03;16.70;99.90
5429;DHT22;2737;52.386;9.980;2023-08-07T07:56:31;16.80;99.90
5429;DHT22;2737;52.386;9.980;2023-08-07T07:58:59;16.70;99.90
5429;DHT22;2737;52.386;9.980;2023-08-07T08:01:27;16.50;99.90
5429;DHT22;2737;52.386;9.980;2023-08-07T08:03:54;16.50;99.90
5429;DHT22;2737;52.386;9.980;2023-08-07T08:06:21;16.50;99.90
5429;DHT22;2737;52.386;9.980;2023-08-07T08:08:48;16.60;99.90
5429;DHT22;2737;52.386;9.980;2023-08-07T08:11:15;16.70;99.90
5429;DHT22;2737;52.386;9.980;2023-08-07T08:13:43;16.60;99.90
5429;DHT22;2737;52.386;9.980;2023-08-07T08:16:11;16.80;99.90
5429;DHT22;2737;52.386;9.980;2023-08-07T08:18:38;16.80;99.90
5429;DHT22;2737;52.386;9.980;2023-08-07T08:21:05;16.80;99.90
5429;DHT22;2737;52.386;9.980;2023-08-07T08:23:32;16.70;99.90
5429;DHT22;2737;52.386;9.980;2023-08-07T08:26:01;16.60;99.90
5429;DHT22;2737;52.386;9.980;2023-08-07T08:28:29;16.70;99.90
5429;DHT22;2737;52.386;9.980;2023-08-07T08:30:57;16.80;99.90
5429;DHT22;2737;52.386;9.980;2023-08-07T08:33:24;16.80;99.90
5429;DHT22;2737;52.386;9.980;2023-08-07T08:35:51;16.90;99.90
5429;DHT22;2737;52.386;9.980;2023-08-07T08:38:18;17.00;99.90
5429;DHT22;2737;52.386;9.980;2023-08-07T08:40:47;17.00;99.90
5429;DHT22;2737;52.386;9.980;2023-08-07T08:43:16;17.00;99.90
5429;DHT22;2737;52.386;9.980;2023-08-07T08:45:44;17.10;99.90
5429;DHT22;2737;52.386;9.980;2023-08-07T08:48:16;17.20;99.90
5429;DHT22;2737;52.386;9.980;2023-08-07T08:50:48;16.90;99.90
5429;DHT22;2737;52.386;9.980;2023-08-07T08:53:16;16.70;99.90
5429;DHT22;2737;52.386;9.980;2023-08-07T08:55:43;16.70;99.90
5429;DHT22;2737;52.386;9.980;2023-08-07T08:58:13;16.80;99.90
5429;DHT22;2737;52.386;9.980;2023-08-07T09:00:42;17.30;99.90
5429;DHT22;2737;52.386;9.980;2023-08-07T09:03:09;17.70;99.90
5429;DHT22;2737;52.386;9.980;2023-08-07T09:05:38;17.60;99.90
5429;DHT22;2737;52.386;9.980;2023-08-07T09:08:07;17.40;99.90
5429;DHT22;2737;52.386;9.980;2023-08-07T09:10:35;16.60;99.90
5429;DHT22;2737;52.386;9.980;2023-08-07T09:13:03;16.20;99.90
5429;DHT22;2737;52.386;9.980;2023-08-07T09:15:31;15.70;99.90
5429;DHT22;2737;52.386;9.980;2023-08-07T09:17:59;15.50;99.90
5429;DHT22;2737;52.386;9.980;2023-08-07T09:20:27;15.50;99.90
5429;DHT22;2737;52.386;9.980;2023-08-07T09:22:56;15.50;99.90
5429;DHT22;2737;52.386;9.980;2023-08-07T09:25:28;15.60;99.90
5429;DHT22;2737;52.386;9.980;2023-08-07T09:27:55;15.60;99.90
5429;DHT22;2737;52.386;9.980;2023-08-07T09:30:26;15.50;99.90
5429;DHT22;2737;52.386;9.980;2023-08-07T09:32:54;15.50;99.90
5429;DHT22;2737;52.386;9.980;2023-08-07T09:35:21;15.50;99.90
5429;DHT22;2737;52.386;9.980;2023-08-07T09:37:48;15.70;99.90
5429;DHT22;2737;52.386;9.980;2023-08-07T09:40:18;15.90;99.90
5429;DHT22;2737;52.386;9.980;2023-08-07T09:42:45;16.00;99.90
5429;DHT22;2737;52.386;9.980;2023-08-07T09:45:20;16.10;99.90
5429;DHT22;2737;52.386;9.980;2023-08-07T09:47:57;16.10;99.90
5429;DHT22;2737;52.386;9.980;2023-08-07T09:50:24;16.20;99.90
5429;DHT22;2737;52.386;9.980;2023-08-07T09:52:52;16.30;99.90
5429;DHT22;2737;52.386;9.980;2023-08-07T09:55:21;16.40;99.90
5429;DHT22;2737;52.386;9.980;2023-08-07T09:57:48;16.60;99.90
5429;DHT22;2737;52.386;9.980;2023-08-07T10:00:17;16.90;99.90
5429;DHT22;2737;52.386;9.980;2023-08-07T10:02:46;16.70;99.90
5429;DHT22;2737;52.386;9.980;2023-08-07T10:05:14;16.40;99.90
5429;DHT22;2737;52.386;9.980;2023-08-07T10:07:42;16.20;99.90
5429;DHT22;2737;52.386;9.980;2023-08-07T10:10:10;16.20;99.90
5429;DHT22;2737;52.386;9.980;2023-08-07T10:12:38;16.50;99.90
5429;DHT22;2737;52.386;9.980;2023-08-07T10:15:06;16.60;99.90
5429;DHT22;2737;52.386;9.980;2023-08-07T10:17:34;16.60;99.90
5429;DHT22;2737;52.386;9.980;2023-08-07T10:20:01;16.40;99.90
5429;DHT22;2737;52.386;9.980;2023-08-07T10:22:30;16.20;99.90
5429;DHT22;2737;52.386;9.980;2023-08-07T10:24:58;16.10;99.90
5429;DHT22;2737;52.386;9.980;2023-08-07T10:27:27;16.00;99.90
5429;DHT22;2737;52.386;9.980;2023-08-07T10:29:57;16.10;99.90
5429;DHT22;2737;52.386;9.980;2023-08-07T10:32:27;16.30;99.90
5429;DHT22;2737;52.386;9.980;2023-08-07T10:34:54;16.50;99.90
5429;DHT22;2737;52.386;9.980;2023-08-07T10:37:42;16.80;99.90
5429;DHT22;2737;52.386;9.980;2023-08-07T10:40:10;16.80;99.90
5429;DHT22;2737;52.386;9.980;2023-08-07T10:42:56;16.70;99.90
5429;DHT22;2737;52.386;9.980;2023-08-07T10:45:28;16.60;99.90
5429;DHT22;2737;52.386;9.980;2023-08-07T10:48:06;16.30;99.90
5429;DHT22;2737;52.386;9.980;2023-08-07T10:50:34;16.10;99.90
5429;DHT22;2737;52.386;9.980;2023-08-07T10:53:02;15.90;99.90
5429;DHT22;2737;52.386;9.980;2023-08-07T10:55:43;16.00;99.90
5429;DHT22;2737;52.386;9.980;2023-08-07T10:58:21;16.10;99.90
5429;DHT22;2737;52.386;9.980;2023-08-07T11:00:51;16.30;99.90
5429;DHT22;2737;52.386;9.980;2023-08-07T11:03:26;16.30;99.90
5429;DHT22;2737;52.386;9.980;2023-08-07T11:05:54;16.30;99.90
5429;DHT22;2737;52.386;9.980;2023-08-07T11:08:24;16.30;99.90
5429;DHT22;2737;52.386;9.980;2023-08-07T11:10:51;16.40;99.90
5429;DHT22;2737;52.386;9.980;2023-08-07T11:13:20;16.40;99.90
5429;DHT22;2737;52.386;9.980;2023-08-07T11:15:47;16.30;99.90
5429;DHT22;2737;52.386;9.980;2023-08-07T11:18:16;16.30;99.90
5429;DHT22;2737;52.386;9.980;2023-08-07T11:20:43;16.30;99.90
5429;DHT22;2737;52.386;9.980;2023-08-07T11:23:11;16.40;99.90
5429;DHT22;2737;52.386;9.980;2023-08-07T11:25:38;16.30;99.90
5429;DHT22;2737;52.386;9.980;2023-08-07T11:28:05;16.30;99.90
5429;DHT22;2737;52.386;9.980;2023-08-07T11:30:34;16.50;99.90
5429;DHT22;2737;52.386;9.980;2023-08-07T11:33:01;16.60;99.90
5429;DHT22;2737;52.386;9.980;2023-08-07T11:35:29;16.60;99.90
5429;DHT22;2737;52.386;9.980;2023-08-07T11:37:57;16.70;99.90
5429;DHT22;2737;52.386;9.980;2023-08-07T11:40:25;17.00;99.90
5429;DHT22;2737;52.386;9.980;2023-08-07T11:42:52;17.30;99.90
5429;DHT22;2737;52.386;9.980;2023-08-07T11:45:19;17.60;99.90
5429;DHT22;2737;52.386;9.980;2023-08-07T11:47:46;17.60;99.90
5429;DHT22;2737;52.386;9.980;2023-08-07T11:50:14;17.30;99.90
5429;DHT22;2737;52.386;9.980;2023-08-07T11:52:43;16.90;99.90
5429;DHT22;2737;52.386;9.980;2023-08-07T11:55:10;16.60;99.90
5429;DHT22;2737;52.386;9.980;2023-08-07T11:57:40;16.60;99.90
5429;DHT22;2737;52.386;9.980;2023-08-07T12:00:09;16.70;99.90
5429;DHT22;2737;52.386;9.980;2023-08-07T12:02:42;16.90;99.90
5429;DHT22;2737;52.386;9.980;2023-08-07T12:05:09;17.10;99.90
5429;DHT22;2737;52.386;9.980;2023-08-07T12:07:38;17.20;99.90
5429;DHT22;2737;52.386;9.980;2023-08-07T12:10:09;17.30;99.90
5429;DHT22;2737;52.386;9.980;2023-08-07T12:12:36;17.50;99.90
5429;DHT22;2737;52.386;9.980;2023-08-07T12:15:07;17.70;99.90
5429;DHT22;2737;52.386;9.980;2023-08-07T12:17:35;17.80;99.90
5429;DHT22;2737;52.386;9.980;2023-08-07T12:20:04;17.70;99.90
5429;DHT22;2737;52.386;9.980;2023-08-07T12:22:34;17.80;99.90
5429;DHT22;2737;52.386;9.980;2023-08-07T12:25:02;17.60;99.90
5429;DHT22;2737;52.386;9.980;2023-08-07T12:27:30;17.30;99.90
5429;DHT22;2737;52.386;9.980;2023-08-07T12:29:58;17.20;99.90
5429;DHT22;2737;52.386;9.980;2023-08-07T12:32:25;17.10;99.90
5429;DHT22;2737;52.386;9.980;2023-08-07T12:34:52;17.00;99.90
5429;DHT22;2737;52.386;9.980;2023-08-07T12:37:19;17.10;99.90
5429;DHT22;2737;52.386;9.980;2023-08-07T12:39:47;17.20;99.90
5429;DHT22;2737;52.386;9.980;2023-08-07T12:42:14;17.30;99.90
5429;DHT22;2737;52.386;9.980;2023-08-07T12:44:42;17.10;99.90
5429;DHT22;2737;52.386;9.980;2023-08-07T12:47:09;17.30;99.90
5429;DHT22;2737;52.386;9.980;2023-08-07T12:49:36;17.40;99.90
5429;DHT22;2737;52.386;9.980;2023-08-07T12:52:04;17.30;99.90
5429;DHT22;2737;52.386;9.980;2023-08-07T12:54:31;17.40;99.90
5429;DHT22;2737;52.386;9.980;2023-08-07T12:56:58;17.40;99.90
5429;DHT22;2737;52.386;9.980;2023-08-07T12:59:25;17.40;99.90
5429;DHT22;2737;52.386;9.980;2023-08-07T13:01:54;17.30;99.90
5429;DHT22;2737;52.386;9.980;2023-08-07T13:04:21;17.30;99.90
5429;DHT22;2737;52.386;9.980;2023-08-07T13:06:48;17.40;99.90
5429;DHT22;2737;52.386;9.980;2023-08-07T13:09:16;17.40;99.90
5429;DHT22;2737;52.386;9.980;2023-08-07T13:11:43;17.40;99.90
5429;DHT22;2737;52.386;9.980;2023-08-07T13:14:10;17.60;99.90
5429;DHT22;2737;52.386;9.980;2023-08-07T13:16:37;17.90;99.90
5429;DHT22;2737;52.386;9.980;2023-08-07T13:19:05;18.10;99.90
5429;DHT22;2737;52.386;9.980;2023-08-07T13:21:32;18.30;99.90
5429;DHT22;2737;52.386;9.980;2023-08-07T13:23:59;18.40;99.90
5429;DHT22;2737;52.386;9.980;2023-08-07T13:26:26;18.50;99.90
5429;DHT22;2737;52.386;9.980;2023-08-07T13:28:53;18.30;99.90
5429;DHT22;2737;52.386;9.980;2023-08-07T13:31:20;18.10;99.90
5429;DHT22;2737;52.386;9.980;2023-08-07T13:33:47;17.50;99.90
5429;DHT22;2737;52.386;9.980;2023-08-07T13:36:16;17.10;99.90
5429;DHT22;2737;52.386;9.980;2023-08-07T13:38:43;16.80;99.90
5429;DHT22;2737;52.386;9.980;2023-08-07T13:41:10;16.50;99.90
5429;DHT22;2737;52.386;9.980;2023-08-07T13:43:37;16.40;99.90
5429;DHT22;2737;52.386;9.980;2023-08-07T13:46:04;16.50;99.90
5429;DHT22;2737;52.386;9.980;2023-08-07T13:48:31;16.60;99.90
5429;DHT22;2737;52.386;9.980;2023-08-07T13:50:59;16.70;99.90
5429;DHT22;2737;52.386;9.980;2023-08-07T13:53:31;17.10;99.90
5429;DHT22;2737;52.386;9.980;2023-08-07T13:55:58;17.20;99.90
5429;DHT22;2737;52.386;9.980;2023-08-07T13:58:25;17.50;99.90
5429;DHT22;2737;52.386;9.980;2023-08-07T14:00:52;17.50;99.90
5429;DHT22;2737;52.386;9.980;2023-08-07T14:03:19;17.50;99.90
5429;DHT22;2737;52.386;9.980;2023-08-07T14:05:46;17.70;99.90
5429;DHT22;2737;52.386;9.980;2023-08-07T14:08:14;17.70;99.90
5429;DHT22;2737;52.386;9.980;2023-08-07T14:10:42;17.80;99.90
5429;DHT22;2737;52.386;9.980;2023-08-07T14:13:09;17.90;99.90
5429;DHT22;2737;52.386;9.980;2023-08-07T14:15:37;17.80;99.90
5429;DHT22;2737;52.386;9.980;2023-08-07T14:18:04;17.70;99.90
5429;DHT22;2737;52.386;9.980;2023-08-07T14:20:31;17.60;99.90
5429;DHT22;2737;52.386;9.980;2023-08-07T14:22:58;17.50;99.90
5429;DHT22;2737;52.386;9.980;2023-08-07T14:25:25;17.50;99.90
5429;DHT22;2737;52.386;9.980;2023-08-07T14:27:54;17.50;99.90
5429;DHT22;2737;52.386;9.980;2023-08-07T14:30:22;17.50;99.90
5429;DHT22;2737;52.386;9.980;2023-08-07T14:32:49;17.50;99.90
5429;DHT22;2737;52.386;9.980;2023-08-07T14:35:16;17.50;99.90
5429;DHT22;2737;52.386;9.980;2023-08-07T14:37:43;17.50;99.90
5429;DHT22;2737;52.386;9.980;2023-08-07T14:40:13;17.50;99.90
5429;DHT22;2737;52.386;9.980;2023-08-07T14:42:40;17.60;99.90
5429;DHT22;2737;52.386;9.980;2023-08-07T14:45:09;17.90;99.90
5429;DHT22;2737;52.386;9.980;2023-08-07T14:47:36;18.00;99.90
5429;DHT22;2737;52.386;9.980;2023-08-07T14:50:04;17.90;99.90
5429;DHT22;2737;52.386;9.980;2023-08-07T14:52:31;17.80;99.90
5429;DHT22;2737;52.386;9.980;2023-08-07T14:54:58;17.70;99.90
5429;DHT22;2737;52.386;9.980;2023-08-07T14:57:25;17.90;99.90
5429;DHT22;2737;52.386;9.980;2023-08-07T14:59:52;18.20;99.90
5429;DHT22;2737;52.386;9.980;2023-08-07T15:02:20;18.40;99.90
5429;DHT22;2737;52.386;9.980;2023-08-07T15:04:47;18.20;99.90
5429;DHT22;2737;52.386;9.980;2023-08-07T15:07:14;18.10;99.90
5429;DHT22;2737;52.386;9.980;2023-08-07T15:09:41;18.10;99.90
5429;DHT22;2737;52.386;9.980;2023-08-07T15:12:09;17.90;99.90
5429;DHT22;2737;52.386;9.980;2023-08-07T15:14:36;17.70;99.90
5429;DHT22;2737;52.386;9.980;2023-08-07T15:17:04;17.70;99.90
5429;DHT22;2737;52.386;9.980;2023-08-07T15:19:32;17.70;99.90
5429;DHT22;2737;52.386;9.980;2023-08-07T15:21:59;17.70;99.90
5429;DHT22;2737;52.386;9.980;2023-08-07T15:24:26;17.60;99.90
5429;DHT22;2737;52.386;9.980;2023-08-07T15:26:53;17.70;99.90
5429;DHT22;2737;52.386;9.980;2023-08-07T15:29:20;17.70;99.90
5429;DHT22;2737;52.386;9.980;2023-08-07T15:31:47;17.50;99.90
5429;DHT22;2737;52.386;9.980;2023-08-07T15:34:14;17.50;99.90
5429;DHT22;2737;52.386;9.980;2023-08-07T15:36:43;17.40;99.90
5429;DHT22;2737;52.386;9.980;2023-08-07T15:39:10;17.30;99.90
5429;DHT22;2737;52.386;9.980;2023-08-07T15:41:37;17.10;99.90
5429;DHT22;2737;52.386;9.980;2023-08-07T15:44:04;16.90;99.90
5429;DHT22;2737;52.386;9.980;2023-08-07T15:46:31;16.90;99.90
5429;DHT22;2737;52.386;9.980;2023-08-07T15:48:58;17.00;99.90
5429;DHT22;2737;52.386;9.980;2023-08-07T15:51:25;17.00;99.90
5429;DHT22;2737;52.386;9.980;2023-08-07T15:53:54;17.10;99.90
5429;DHT22;2737;52.386;9.980;2023-08-07T15:56:23;17.00;99.90
5429;DHT22;2737;52.386;9.980;2023-08-07T15:58:50;17.00;99.90
5429;DHT22;2737;52.386;9.980;2023-08-07T16:01:17;17.00;99.90
5429;DHT22;2737;52.386;9.980;2023-08-07T16:03:44;17.00;99.90
5429;DHT22;2737;52.386;9.980;2023-08-07T16:06:11;17.10;99.90